Date,TemperatureHighF,TemperatureAvgF,TemperatureLowF,DewpointHighF,DewpointAvgF,DewpointLowF,HumidityHigh,HumidityAvg,HumidityLow,PressureMaxIn,PressureMinIn,WindSpeedMaxMPH,WindSpeedAvgMPH,GustSpeedMaxMPH,PrecipitationSumIn
2013-1-1,77.9,72.7,63.4,65.5,61.8,59.0,89,69,60,30.19,30.05,10,3,14,0.00
2013-1-2,78.4,70.3,60.9,69.1,65.1,59.1,97,84,70,30.09,29.98,8,1,10,0.00
2013-1-3,79.6,73.4,66.3,71.1,68.0,64.5,95,84,70,30.12,30.02,9,1,11,0.00
2013-1-4,82.1,72.6,65.1,73.8,68.8,63.4,97,88,73,30.21,30.09,4,1,9,0.00
2013-1-5,78.3,70.6,66.0,73.1,67.8,64.5,97,91,78,30.24,30.15,5,1,8,0.09
2013-1-6,80.0,75.5,65.7,73.0,70.6,64.2,97,85,76,30.18,30.06,9,2,13,0.00
2013-1-7,79.5,72.0,67.4,72.2,68.7,66.2,96,90,70,30.16,30.06,5,1,11,0.08
2013-1-8,80.8,77.0,72.8,74.0,72.0,69.7,93,85,78,30.19,30.06,11,3,13,0.17
2013-1-9,80.9,77.8,76.0,73.4,71.6,69.3,88,81,76,30.27,30.15,13,4,15,0.00
2013-1-10,79.8,77.0,75.1,70.5,68.0,64.5,81,74,60,30.29,30.17,13,4,15,0.00
2013-1-11,80.3,76.5,74.0,71.3,68.9,67.1,87,77,70,30.25,30.14,11,4,14,0.01
2013-1-12,79.8,75.9,73.3,70.6,68.1,65.0,83,77,69,30.18,30.08,8,2,12,0.00
2013-1-13,79.2,75.8,73.9,69.0,66.7,63.9,83,74,65,30.12,30.06,10,4,14,0.00
2013-1-14,78.8,75.4,73.1,67.9,65.3,62.3,78,71,65,30.17,30.11,13,3,13,0.00
2013-1-15,78.3,75.2,72.9,69.3,67.3,63.7,84,77,70,30.13,30.04,8,2,11,0.01
2013-1-16,79.5,75.8,71.5,71.6,68.2,62.3,92,78,69,30.10,30.01,9,3,13,0.04
2013-1-17,78.8,71.0,60.4,72.5,67.0,54.9,97,87,76,30.08,29.97,11,2,18,0.19
2013-1-18,70.7,63.9,53.3,62.0,54.9,46.8,83,73,61,30.23,30.08,9,2,13,0.00
2013-1-19,71.7,68.6,63.9,68.2,64.6,58.7,96,88,66,30.21,30.08,6,1,10,0.37
2013-1-20,79.9,70.7,63.3,71.4,67.0,62.1,98,89,72,30.14,30.01,7,1,9,0.09
2013-1-21,79.2,70.9,65.8,71.7,68.0,64.1,97,91,75,30.06,29.96,7,1,8,0.23
2013-1-22,77.5,68.8,62.1,65.1,60.7,55.1,96,77,60,30.20,30.00,11,3,17,0.01
2013-1-23,76.3,69.1,60.3,60.4,56.3,52.4,84,64,53,30.28,30.18,11,2,15,0.00
2013-1-24,76.9,65.7,57.3,60.0,55.1,52.0,89,70,50,30.29,30.19,7,1,11,0.00
2013-1-25,78.0,66.6,55.9,64.4,56.8,50.6,86,72,54,30.28,30.17,7,1,10,0.00
2013-1-26,79.4,68.4,58.2,64.0,59.9,54.4,94,76,56,30.25,30.16,10,1,11,0.00
2013-1-27,79.3,72.7,63.7,66.1,63.2,59.9,88,73,57,30.27,30.19,7,1,12,0.00
2013-1-28,79.1,75.2,72.2,67.7,65.3,62.6,79,72,64,30.31,30.22,9,3,12,0.00
2013-1-29,77.9,74.9,73.5,70.2,67.7,65.2,82,78,74,30.23,30.12,10,4,13,0.00
2013-1-30,78.3,74.9,72.6,69.5,67.1,64.2,87,77,69,30.12,29.96,12,4,17,0.00
2013-1-31,74.5,68.2,59.2,71.6,60.5,41.5,94,77,50,30.17,29.94,6,2,13,0.00